This is the latest recevied weather packets stored in our database for station/object N9CQL. If no packets are shown the sender has not sent any weather packets the latest 1 day(s).
| Time | Temp. | Humidity | Pressure | Rain* | Wind** | Luminosity | Snow |
|---|---|---|---|---|---|---|---|
| 1778022024 | 13.89° C | 38% | 1007.3 hPa | 0 mm | 0 m/s | 92 W/m² | - |
| 1778021721 | 13.89° C | 42% | 1007.1 hPa | 0 mm | 0 m/s | 106 W/m² | - |
| 1778021417 | 13.33° C | 38% | 1007.6 hPa | 0 mm | 0 m/s | 103 W/m² | - |
| 1778021114 | 13.89° C | 38% | 1007.5 hPa | 0 mm | 0 m/s | 113 W/m² | - |
| 1778020811 | 13.89° C | 39% | 1007.5 hPa | 0 mm | 0 m/s | 113 W/m² | - |
| 1778020508 | 13.89° C | 38% | 1007.4 hPa | 0 mm | 0 m/s | 120 W/m² | - |
| 1778020216 | 14.44° C | 35% | 1007.7 hPa | 0 mm | 0 m/s | 110 W/m² | - |
| 1778019901 | 14.44° C | 39% | 1007.4 hPa | 0 mm | 0 m/s | 147 W/m² | - |
| 1778019596 | 13.89° C | 35% | 1007.4 hPa | 0 mm | 0 m/s | 174 W/m² | - |
| 1778019294 | 13.89° C | 35% | 1007.2 hPa | 0 mm | 0 m/s | 163 W/m² | - |
| 1778018991 | 13.89° C | 39% | 1007.2 hPa | 0 mm | 0 m/s | 152 W/m² | - |
| 1778018688 | 13.89° C | 35% | 1007.7 hPa | 0 mm | 0.45 m/s, 239° | 144 W/m² | - |
| 1778018385 | 13.89° C | 37% | 1007.5 hPa | 0 mm | 0 m/s | 140 W/m² | - |
| 1778018084 | 13.89° C | 36% | 1007.7 hPa | 0 mm | 0 m/s | 127 W/m² | - |
| 1778017781 | 13.89° C | 37% | 1007.8 hPa | 0 mm | 0 m/s | 123 W/m² | - |
| 1778017479 | 13.89° C | 36% | 1007.6 hPa | 0 mm | 0 m/s | 130 W/m² | - |
| 1778017176 | 13.89° C | 35% | 1007.4 hPa | 0 mm | 0.89 m/s, 340° | 139 W/m² | - |
| 1778016873 | 13.89° C | 38% | 1007.9 hPa | 0 mm | 0 m/s | 140 W/m² | - |
| 1778016569 | 13.89° C | 36% | 1007.8 hPa | 0 mm | 0 m/s | 170 W/m² | - |
| 1778016266 | 14.44° C | 35% | 1007.6 hPa | 0 mm | 0 m/s | 164 W/m² | - |
| 1778015963 | 13.89° C | 38% | 1007.6 hPa | 0 mm | 0 m/s | 223 W/m² | - |
| 1778015660 | 13.89° C | 36% | 1007.6 hPa | 0 mm | 0 m/s | 163 W/m² | - |
| 1778015357 | 13.89° C | 34% | 1007.8 hPa | 0 mm | 0 m/s | 146 W/m² | - |
| 1778015063 | 13.89° C | 39% | 1007.6 hPa | 0 mm | 0 m/s | 148 W/m² | - |
| 1778014751 | 13.89° C | 37% | 1007.8 hPa | 0 mm | 0 m/s | 177 W/m² | - |
* Rain latest hour (hover to see other rain measurements)
** Current wind speed in m/s (hover to see current wind gust speed)